createdAt,value
2017-03-06T00:00:42.673Z,0
2017-03-06T00:01:53.049Z,0
2017-03-06T00:03:03.467Z,0
2017-03-06T00:04:13.458Z,0
2017-03-06T00:05:24.249Z,0
2017-03-06T00:06:35.015Z,0
2017-03-06T00:07:45.797Z,0
2017-03-06T00:08:56.574Z,0
2017-03-06T00:10:06.569Z,0
2017-03-06T00:11:17.334Z,0
2017-03-06T00:12:27.333Z,0
2017-03-06T00:13:37.725Z,0
2017-03-06T00:14:48.096Z,0
2017-03-06T00:15:58.490Z,0
2017-03-06T00:17:09.259Z,0
2017-03-06T00:18:20.033Z,0
2017-03-06T00:19:30.429Z,0
2017-03-06T00:20:41.199Z,0
2017-03-06T00:21:51.993Z,0
2017-03-06T00:23:02.376Z,0
2017-03-06T00:24:13.158Z,0
2017-03-06T00:25:23.167Z,0
2017-03-06T00:26:33.550Z,0
2017-03-06T00:27:43.955Z,0
2017-03-06T00:28:53.953Z,0
2017-03-06T00:30:04.380Z,0
2017-03-06T00:31:15.153Z,0
2017-03-06T00:32:25.575Z,0
2017-03-06T00:33:35.992Z,0
2017-03-06T00:34:46.781Z,0
2017-03-06T00:35:57.186Z,0
2017-03-06T00:37:07.971Z,0
2017-03-06T00:38:19.008Z,0
2017-03-06T00:39:29.779Z,0
2017-03-06T00:40:40.185Z,0
2017-03-06T00:41:50.984Z,0
2017-03-06T00:43:01.779Z,0
2017-03-06T00:44:12.150Z,0
2017-03-06T00:45:22.538Z,0
2017-03-06T00:46:32.923Z,0
2017-03-06T00:47:43.715Z,0
2017-03-06T00:48:54.483Z,0
2017-03-06T00:50:04.856Z,0
2017-03-06T00:51:15.621Z,0
2017-03-06T00:52:26.002Z,0
2017-03-06T00:53:36.774Z,0
2017-03-06T00:54:47.151Z,0
2017-03-06T00:55:57.537Z,0
2017-03-06T00:57:07.973Z,0
2017-03-06T00:58:18.365Z,0
2017-03-06T00:59:28.758Z,0
2017-03-06T01:00:39.530Z,0
2017-03-06T01:01:49.922Z,0
2017-03-06T01:02:59.532Z,0
2017-03-06T01:04:10.304Z,0
2017-03-06T01:05:20.307Z,0
2017-03-06T01:06:30.699Z,0
2017-03-06T01:07:41.131Z,0
2017-03-06T01:08:51.896Z,0
2017-03-06T01:10:02.687Z,0
2017-03-06T01:11:13.477Z,0
2017-03-06T01:12:23.856Z,0
2017-03-06T01:13:34.273Z,0
2017-03-06T01:14:44.289Z,0
2017-03-06T01:15:55.087Z,0
2017-03-06T01:17:05.864Z,0
2017-03-06T01:18:16.637Z,0
2017-03-06T01:19:27.035Z,0
2017-03-06T01:20:37.804Z,0
2017-03-06T01:21:48.209Z,0
2017-03-06T01:22:58.984Z,0
2017-03-06T01:24:09.357Z,0
2017-03-06T01:25:19.771Z,0
2017-03-06T01:26:30.167Z,0
2017-03-06T01:27:40.971Z,0
2017-03-06T01:28:51.751Z,0
2017-03-06T01:30:02.150Z,0
2017-03-06T01:31:11.761Z,0
2017-03-06T01:32:22.122Z,0
2017-03-06T01:33:32.532Z,0
2017-03-06T01:34:43.314Z,0
2017-03-06T01:35:53.712Z,0
2017-03-06T01:37:04.507Z,0
2017-03-06T01:38:15.274Z,0
2017-03-06T01:39:25.667Z,0
2017-03-06T01:40:36.029Z,0
2017-03-06T01:41:46.795Z,0
2017-03-06T01:42:57.568Z,0
2017-03-06T01:44:08.353Z,0
2017-03-06T01:45:18.341Z,0
2017-03-06T01:46:29.122Z,0
2017-03-06T01:47:39.127Z,0
2017-03-06T01:48:49.932Z,0
2017-03-06T01:50:00.720Z,0
2017-03-06T01:51:11.093Z,0
2017-03-06T01:52:21.507Z,0
2017-03-06T01:53:31.929Z,0
2017-03-06T01:54:42.719Z,0
2017-03-06T01:55:52.714Z,0
2017-03-06T01:57:03.111Z,0
2017-03-06T01:58:13.109Z,0
2017-03-06T01:59:23.086Z,0
2017-03-06T02:00:33.904Z,0
2017-03-06T02:01:44.693Z,0
2017-03-06T02:02:55.456Z,0
2017-03-06T02:04:06.239Z,0
2017-03-06T02:05:17.010Z,0
2017-03-06T02:06:26.606Z,0
2017-03-06T02:07:37.387Z,0
2017-03-06T02:08:48.164Z,0
2017-03-06T02:09:58.171Z,0
2017-03-06T02:11:08.545Z,0
2017-03-06T02:12:18.543Z,0
2017-03-06T02:13:28.925Z,0
2017-03-06T02:14:39.732Z,0
2017-03-06T02:15:49.334Z,0
2017-03-06T02:17:00.158Z,0
2017-03-06T02:18:10.529Z,0
2017-03-06T02:19:21.306Z,0
2017-03-06T02:20:32.101Z,0
2017-03-06T02:21:42.880Z,0
2017-03-06T02:22:53.242Z,0
2017-03-06T02:24:03.621Z,0
2017-03-06T02:25:14.403Z,0
2017-03-06T02:26:25.239Z,0
2017-03-06T02:27:35.625Z,0
2017-03-06T02:28:46.397Z,0
2017-03-06T02:29:56.374Z,0
2017-03-06T02:31:07.188Z,0
2017-03-06T02:32:17.574Z,0
2017-03-06T02:33:27.206Z,0
2017-03-06T02:34:38.026Z,0
2017-03-06T02:35:48.389Z,0
2017-03-06T02:36:59.201Z,0
2017-03-06T02:38:09.599Z,0
2017-03-06T02:39:20.000Z,0
2017-03-06T02:40:30.374Z,0
2017-03-06T02:41:40.792Z,0
2017-03-06T02:42:51.175Z,0
2017-03-06T02:44:01.962Z,0
2017-03-06T02:45:12.334Z,0
2017-03-06T02:46:23.124Z,0
2017-03-06T02:47:33.496Z,0
2017-03-06T02:48:43.869Z,0
2017-03-06T02:49:54.279Z,0
2017-03-06T02:51:04.666Z,0
2017-03-06T02:52:15.058Z,0
2017-03-06T02:53:25.823Z,0
2017-03-06T02:54:36.607Z,0
2017-03-06T02:55:47.017Z,0
2017-03-06T02:56:57.780Z,0
2017-03-06T02:58:08.570Z,0
2017-03-06T02:59:18.948Z,0
2017-03-06T03:00:29.721Z,0
2017-03-06T03:32:22.811Z,0
2017-03-06T03:33:32.784Z,0
2017-03-06T03:34:43.158Z,0
2017-03-06T03:35:53.941Z,0
2017-03-06T03:37:04.312Z,0
2017-03-06T03:38:15.080Z,0
2017-03-06T03:39:25.847Z,0
2017-03-06T03:40:36.208Z,0
2017-03-06T03:41:46.606Z,0
2017-03-06T03:42:56.983Z,0
2017-03-06T03:44:07.378Z,0
2017-03-06T03:45:17.756Z,0
2017-03-06T03:46:27.748Z,0
2017-03-06T03:47:38.524Z,0
2017-03-06T03:48:49.286Z,0
2017-03-06T03:50:00.057Z,0
2017-03-06T03:51:10.834Z,0
2017-03-06T03:52:21.226Z,0
2017-03-06T03:53:31.208Z,0
2017-03-06T03:54:41.625Z,0
2017-03-06T03:55:52.378Z,0
2017-03-06T03:57:03.166Z,0
2017-03-06T03:58:13.928Z,0
2017-03-06T03:59:24.324Z,0
2017-03-06T04:00:35.119Z,0
2017-03-06T04:01:45.530Z,0
2017-03-06T04:02:56.300Z,0
2017-03-06T04:04:06.677Z,0
2017-03-06T04:05:16.285Z,0
2017-03-06T04:06:27.092Z,0
2017-03-06T04:07:37.079Z,0
2017-03-06T04:08:47.453Z,0
2017-03-06T04:09:58.241Z,0
2017-03-06T04:11:09.032Z,0
2017-03-06T04:12:19.811Z,0
2017-03-06T04:13:30.575Z,0
2017-03-06T04:14:40.573Z,0
2017-03-06T04:15:51.351Z,0
2017-03-06T04:17:01.747Z,0
2017-03-06T04:18:11.735Z,0
2017-03-06T04:19:22.110Z,0
2017-03-06T04:20:32.900Z,0
2017-03-06T04:21:42.889Z,0
2017-03-06T04:22:53.676Z,0
2017-03-06T04:24:04.452Z,0
2017-03-06T04:25:15.253Z,0
2017-03-06T04:26:26.015Z,0
2017-03-06T04:27:36.398Z,0
2017-03-06T04:28:47.191Z,0
2017-03-06T04:29:57.580Z,0
2017-03-06T04:31:08.375Z,0
2017-03-06T04:32:18.777Z,0
2017-03-06T04:33:29.179Z,0
2017-03-06T04:34:39.943Z,0
2017-03-06T04:35:50.319Z,0
2017-03-06T04:37:00.309Z,0
2017-03-06T04:38:11.087Z,0
2017-03-06T04:39:21.861Z,0
2017-03-06T04:40:32.673Z,0
2017-03-06T04:41:43.487Z,0
2017-03-06T04:42:53.927Z,0
2017-03-06T04:44:04.744Z,0
2017-03-06T04:45:15.137Z,0
2017-03-06T04:46:25.523Z,0
2017-03-06T04:47:35.922Z,0
2017-03-06T04:48:46.319Z,0
2017-03-06T04:49:55.919Z,0
2017-03-06T04:51:05.532Z,0
2017-03-06T04:52:16.304Z,0
2017-03-06T04:53:26.682Z,0
2017-03-06T04:54:37.061Z,0
2017-03-06T04:55:47.834Z,0
2017-03-06T04:56:58.474Z,0
2017-03-06T04:58:08.842Z,0
2017-03-06T04:59:18.815Z,0
2017-03-06T05:00:28.429Z,0
2017-03-06T05:01:38.833Z,0
2017-03-06T05:02:49.621Z,0
2017-03-06T05:03:59.612Z,0
2017-03-06T05:05:10.394Z,0
2017-03-06T05:06:20.780Z,0
2017-03-06T05:07:31.155Z,0
2017-03-06T05:08:41.943Z,0
2017-03-06T05:09:52.778Z,0
2017-03-06T05:11:03.580Z,0
2017-03-06T05:12:14.389Z,0
2017-03-06T05:13:23.988Z,0
2017-03-06T05:14:34.800Z,0
2017-03-06T05:15:45.573Z,0
2017-03-06T05:16:55.635Z,0
2017-03-06T05:18:05.640Z,0
2017-03-06T05:19:16.059Z,0
2017-03-06T05:20:26.073Z,0
2017-03-06T05:21:36.462Z,0
2017-03-06T05:22:46.428Z,0
2017-03-06T05:23:57.201Z,0
2017-03-06T05:25:07.201Z,0
2017-03-06T05:26:17.603Z,0
2017-03-06T05:27:28.375Z,0
2017-03-06T05:28:39.150Z,5
2017-03-06T05:29:49.958Z,5
2017-03-06T05:31:00.751Z,5
2017-03-06T05:32:11.531Z,5
2017-03-06T05:33:22.305Z,5
2017-03-06T05:34:33.104Z,10
2017-03-06T05:35:43.868Z,10
2017-03-06T05:36:53.863Z,10
2017-03-06T05:38:04.220Z,10
2017-03-06T05:39:14.201Z,10
2017-03-06T05:40:24.204Z,15
2017-03-06T05:41:34.610Z,15
2017-03-06T05:42:45.403Z,15
2017-03-06T05:43:56.194Z,15
2017-03-06T05:45:06.175Z,20
2017-03-06T05:46:16.968Z,20
2017-03-06T05:47:27.775Z,20
2017-03-06T05:48:38.141Z,25
2017-03-06T05:49:48.938Z,25
2017-03-06T05:50:59.356Z,30
2017-03-06T05:52:10.135Z,35
2017-03-06T05:53:20.523Z,35
2017-03-06T05:54:31.310Z,35
2017-03-06T05:55:41.305Z,35
2017-03-06T05:56:52.074Z,40
2017-03-06T05:58:02.873Z,45
2017-03-06T05:59:12.871Z,45
2017-03-06T06:00:22.858Z,50
2017-03-06T06:01:32.870Z,55
2017-03-06T06:02:43.666Z,55
2017-03-06T06:03:54.038Z,55
2017-03-06T06:05:04.430Z,55
2017-03-06T06:06:15.222Z,55
2017-03-06T06:07:25.999Z,60
2017-03-06T06:08:36.377Z,60
2017-03-06T06:09:46.357Z,65
2017-03-06T06:10:55.982Z,65
2017-03-06T06:12:06.390Z,65
2017-03-06T06:13:17.182Z,65
2017-03-06T06:14:27.993Z,65
2017-03-06T06:15:38.781Z,70
2017-03-06T06:16:49.173Z,70
2017-03-06T06:17:59.945Z,70
2017-03-06T06:19:09.946Z,70
2017-03-06T06:20:19.546Z,70
2017-03-06T06:21:30.348Z,70
2017-03-06T06:22:40.750Z,75
2017-03-06T06:23:51.538Z,75
2017-03-06T06:25:01.931Z,80
2017-03-06T06:26:12.746Z,80
2017-03-06T06:27:22.747Z,80
2017-03-06T06:28:33.164Z,80
2017-03-06T06:29:43.955Z,80
2017-03-06T06:30:53.957Z,85
2017-03-06T06:32:04.731Z,85
2017-03-06T06:33:15.138Z,85
2017-03-06T06:34:25.122Z,85
2017-03-06T06:35:35.495Z,90
2017-03-06T06:36:46.277Z,90
2017-03-06T06:37:56.676Z,95
2017-03-06T06:39:07.476Z,95
2017-03-06T06:40:18.257Z,100
2017-03-06T06:41:28.649Z,105
2017-03-06T06:42:39.475Z,110
2017-03-06T06:43:49.872Z,110
2017-03-06T06:45:00.268Z,110
2017-03-06T06:46:11.060Z,110
2017-03-06T06:47:22.092Z,110
2017-03-06T06:48:32.073Z,110
2017-03-06T06:49:42.865Z,110
2017-03-06T06:50:53.667Z,110
2017-03-06T06:52:04.085Z,110
2017-03-06T06:53:14.098Z,110
2017-03-06T06:54:24.877Z,110
2017-03-06T06:55:34.880Z,110
2017-03-06T06:56:45.703Z,115
2017-03-06T06:57:56.103Z,115
2017-03-06T06:59:06.889Z,120
2017-03-06T07:00:17.679Z,120
2017-03-06T07:01:28.088Z,125
2017-03-06T07:02:38.479Z,125
2017-03-06T07:03:49.282Z,135
2017-03-06T07:05:00.054Z,145
2017-03-06T07:06:10.839Z,145
2017-03-06T07:07:21.640Z,145
2017-03-06T07:08:32.039Z,150
2017-03-06T07:09:41.629Z,155
2017-03-06T07:10:52.028Z,160
2017-03-06T07:12:02.802Z,155
2017-03-06T07:13:13.636Z,160
2017-03-06T07:14:24.022Z,160
2017-03-06T07:15:34.410Z,165
2017-03-06T07:16:44.814Z,170
2017-03-06T07:17:55.210Z,175
2017-03-06T07:19:05.609Z,190
2017-03-06T07:20:16.376Z,185
2017-03-06T07:21:26.794Z,185
2017-03-06T07:22:37.203Z,195
2017-03-06T07:23:47.610Z,190
2017-03-06T07:24:58.428Z,190
2017-03-06T07:26:08.858Z,185
2017-03-06T07:27:19.646Z,195
2017-03-06T07:28:30.434Z,195
2017-03-06T07:29:41.204Z,195
2017-03-06T07:30:51.196Z,195
2017-03-06T07:32:02.016Z,185
2017-03-06T07:33:12.820Z,190
2017-03-06T07:34:23.596Z,200
2017-03-06T07:35:34.415Z,210
2017-03-06T07:36:45.226Z,205
2017-03-06T07:37:56.262Z,220
2017-03-06T07:39:07.057Z,220
2017-03-06T07:40:17.854Z,215
2017-03-06T07:41:28.219Z,205
2017-03-06T07:42:38.603Z,200
2017-03-06T07:43:49.374Z,200
2017-03-06T07:45:00.226Z,210
2017-03-06T07:46:11.023Z,205
2017-03-06T07:47:21.432Z,205
2017-03-06T07:48:31.806Z,205
2017-03-06T07:49:42.613Z,215
2017-03-06T07:50:53.021Z,220
2017-03-06T07:52:03.797Z,195
2017-03-06T07:53:14.573Z,190
2017-03-06T07:54:24.966Z,190
2017-03-06T07:55:35.765Z,190
2017-03-06T07:56:46.208Z,190
2017-03-06T07:57:57.031Z,190
2017-03-06T07:59:07.808Z,195
2017-03-06T08:00:18.604Z,210
2017-03-06T08:01:28.990Z,230
2017-03-06T08:02:39.767Z,240
2017-03-06T08:03:50.585Z,230
2017-03-06T08:05:00.981Z,225
2017-03-06T08:06:11.807Z,220
2017-03-06T08:07:22.199Z,225
2017-03-06T08:08:32.594Z,215
2017-03-06T08:09:43.366Z,205
2017-03-06T08:10:52.969Z,200
2017-03-06T08:12:03.376Z,205
2017-03-06T08:13:14.179Z,215
2017-03-06T08:14:24.960Z,195
2017-03-06T08:15:35.739Z,195
2017-03-06T08:16:46.513Z,190
2017-03-06T08:17:56.921Z,190
2017-03-06T08:19:07.695Z,195
2017-03-06T08:20:18.089Z,200
2017-03-06T08:21:28.918Z,185
2017-03-06T08:22:39.721Z,180
2017-03-06T08:23:50.532Z,180
2017-03-06T08:25:01.325Z,185
2017-03-06T08:26:11.717Z,185
2017-03-06T08:27:22.127Z,185
2017-03-06T08:28:32.524Z,190
2017-03-06T08:29:42.904Z,190
2017-03-06T08:30:53.699Z,180
2017-03-06T08:32:03.701Z,175
2017-03-06T08:33:14.092Z,170
2017-03-06T08:34:24.874Z,165
2017-03-06T08:35:35.271Z,165
2017-03-06T08:36:45.664Z,165
2017-03-06T08:37:56.084Z,170
2017-03-06T08:39:06.510Z,170
2017-03-06T08:40:16.932Z,175
2017-03-06T08:41:27.330Z,175
2017-03-06T08:42:38.126Z,175
2017-03-06T08:43:48.595Z,180
2017-03-06T08:44:59.364Z,185
2017-03-06T08:46:09.754Z,195
2017-03-06T08:47:20.139Z,195
2017-03-06T08:48:30.122Z,190
2017-03-06T08:49:40.902Z,185
2017-03-06T08:50:51.687Z,180
2017-03-06T08:52:02.495Z,180
2017-03-06T08:53:13.312Z,180
2017-03-06T08:54:23.423Z,180
2017-03-06T08:55:33.867Z,185
2017-03-06T08:56:44.657Z,190
2017-03-06T08:57:55.064Z,200
2017-03-06T08:59:05.451Z,205
2017-03-06T09:00:16.256Z,210
2017-03-06T09:01:27.082Z,205
2017-03-06T09:02:37.465Z,220
2017-03-06T09:03:48.257Z,225
2017-03-06T09:04:58.249Z,220
2017-03-06T09:06:08.252Z,230
2017-03-06T09:07:18.242Z,240
2017-03-06T09:08:27.870Z,250
2017-03-06T09:09:38.669Z,250
2017-03-06T09:10:48.670Z,240
2017-03-06T09:11:59.450Z,230
2017-03-06T09:13:10.235Z,225
2017-03-06T09:14:21.035Z,220
2017-03-06T09:15:31.470Z,215
2017-03-06T09:16:42.490Z,215
2017-03-06T09:17:53.254Z,210
2017-03-06T09:19:03.256Z,215
2017-03-06T09:20:14.021Z,220
2017-03-06T09:21:24.018Z,220
2017-03-06T09:22:34.410Z,225
2017-03-06T09:23:44.807Z,230
2017-03-06T09:24:54.871Z,235
2017-03-06T09:26:05.258Z,235
2017-03-06T09:27:15.645Z,245
2017-03-06T09:28:25.647Z,250
2017-03-06T09:29:36.030Z,270
2017-03-06T09:30:46.019Z,290
2017-03-06T09:31:56.801Z,295
2017-03-06T09:33:07.176Z,315
2017-03-06T09:34:17.563Z,320
2017-03-06T09:35:28.362Z,330
2017-03-06T09:36:38.821Z,335
2017-03-06T09:37:49.256Z,335
2017-03-06T09:39:00.027Z,325
2017-03-06T09:40:10.423Z,320
2017-03-06T09:41:21.211Z,315
2017-03-06T09:42:31.199Z,320
2017-03-06T09:43:41.590Z,310
2017-03-06T09:44:52.387Z,300
2017-03-06T09:46:03.168Z,330
2017-03-06T09:47:13.974Z,330
2017-03-06T09:48:24.769Z,340
2017-03-06T09:49:35.156Z,335
2017-03-06T09:50:45.573Z,330
2017-03-06T09:51:56.365Z,320
2017-03-06T09:53:06.739Z,295
2017-03-06T09:54:16.820Z,265
2017-03-06T09:55:27.236Z,255
2017-03-06T09:56:37.629Z,245
2017-03-06T09:57:48.446Z,245
2017-03-06T09:58:58.072Z,235
2017-03-06T10:00:08.076Z,235
2017-03-06T10:01:18.864Z,235
2017-03-06T10:02:29.650Z,230
2017-03-06T10:03:40.449Z,230
2017-03-06T10:04:50.825Z,230
2017-03-06T10:06:00.825Z,235
2017-03-06T10:07:10.424Z,235
2017-03-06T10:08:20.851Z,235
2017-03-06T10:09:31.638Z,235
2017-03-06T10:10:42.441Z,235
2017-03-06T10:11:52.941Z,235
2017-03-06T10:13:03.346Z,235
2017-03-06T10:14:14.138Z,235
2017-03-06T10:15:24.923Z,235
2017-03-06T10:16:35.340Z,235
2017-03-06T10:17:45.325Z,240
2017-03-06T10:18:56.123Z,245
2017-03-06T10:20:06.923Z,250
2017-03-06T10:21:16.541Z,260
2017-03-06T10:22:27.361Z,270
2017-03-06T10:23:37.767Z,275
2017-03-06T10:24:48.546Z,290
2017-03-06T10:25:58.970Z,300
2017-03-06T10:27:09.767Z,300
2017-03-06T10:28:20.160Z,295
2017-03-06T10:29:30.946Z,300
2017-03-06T10:30:41.358Z,305
2017-03-06T10:31:51.336Z,305
2017-03-06T10:33:02.153Z,310
2017-03-06T10:34:12.952Z,300
2017-03-06T10:35:23.344Z,300
2017-03-06T10:36:34.121Z,295
2017-03-06T10:37:44.546Z,320
2017-03-06T10:38:54.966Z,320
2017-03-06T10:40:04.973Z,350
2017-03-06T10:41:15.357Z,330
2017-03-06T10:42:26.133Z,325
2017-03-06T10:43:36.157Z,315
2017-03-06T10:44:46.566Z,320
2017-03-06T10:45:56.955Z,310
2017-03-06T10:47:07.733Z,275
2017-03-06T10:48:18.116Z,295
2017-03-06T10:49:28.104Z,260
2017-03-06T10:50:38.497Z,245
2017-03-06T10:51:48.879Z,240
2017-03-06T10:52:59.664Z,225
2017-03-06T10:54:10.087Z,220
2017-03-06T10:55:20.880Z,210
2017-03-06T10:56:30.478Z,205
2017-03-06T10:57:40.888Z,200
2017-03-06T10:58:50.869Z,200
2017-03-06T11:00:01.644Z,205
2017-03-06T11:01:12.017Z,210
2017-03-06T11:02:22.025Z,210
2017-03-06T11:03:32.016Z,220
2017-03-06T11:04:42.433Z,235
2017-03-06T11:05:52.830Z,255
2017-03-06T11:07:02.420Z,265
2017-03-06T11:08:12.029Z,280
2017-03-06T11:09:22.016Z,275
2017-03-06T11:10:32.813Z,290
2017-03-06T11:11:43.206Z,275
2017-03-06T11:12:54.007Z,265
2017-03-06T11:14:04.403Z,265
2017-03-06T11:15:14.803Z,260
2017-03-06T11:16:25.640Z,250
2017-03-06T11:17:36.428Z,240
2017-03-06T11:18:47.234Z,240
2017-03-06T11:19:57.620Z,245
2017-03-06T11:21:08.420Z,245
2017-03-06T11:22:19.214Z,250
2017-03-06T11:23:28.830Z,255
2017-03-06T11:24:39.633Z,245
2017-03-06T11:25:50.457Z,245
2017-03-06T11:27:01.245Z,250
2017-03-06T11:28:11.608Z,245
2017-03-06T11:29:22.009Z,230
2017-03-06T11:30:32.006Z,225
2017-03-06T11:31:42.839Z,220
2017-03-06T11:32:52.863Z,210
2017-03-06T11:34:02.878Z,205
2017-03-06T11:35:13.918Z,205
2017-03-06T11:36:24.708Z,200
2017-03-06T11:37:35.085Z,190
2017-03-06T11:38:45.097Z,185
2017-03-06T11:39:55.883Z,190
2017-03-06T11:41:06.290Z,195
2017-03-06T11:42:16.307Z,200
2017-03-06T11:43:27.154Z,205
2017-03-06T11:44:36.024Z,205
2017-03-06T11:45:46.468Z,205
2017-03-06T11:46:57.303Z,205
2017-03-06T11:48:07.754Z,215
2017-03-06T11:49:18.578Z,215
2017-03-06T11:50:28.988Z,225
2017-03-06T11:51:39.392Z,230
2017-03-06T11:52:50.224Z,230
2017-03-06T11:54:01.030Z,225
2017-03-06T11:55:11.448Z,225
2017-03-06T11:56:22.218Z,225
2017-03-06T11:57:31.818Z,215
2017-03-06T11:58:42.608Z,210
2017-03-06T11:59:52.992Z,205
2017-03-06T12:01:03.814Z,200
2017-03-06T12:02:14.619Z,205
2017-03-06T12:03:25.017Z,210
2017-03-06T12:04:35.067Z,210
2017-03-06T12:05:44.664Z,210
2017-03-06T12:06:55.092Z,210
2017-03-06T12:08:05.887Z,210
2017-03-06T12:09:16.304Z,220
2017-03-06T12:10:27.120Z,210
2017-03-06T12:11:37.528Z,210
2017-03-06T12:12:48.323Z,205
2017-03-06T12:13:59.127Z,200
2017-03-06T12:15:09.924Z,190
2017-03-06T12:16:19.938Z,180
2017-03-06T12:17:29.947Z,175
2017-03-06T12:18:39.942Z,170
2017-03-06T12:19:50.399Z,170
2017-03-06T12:21:01.208Z,175
2017-03-06T12:22:12.027Z,185
2017-03-06T12:23:22.426Z,200
2017-03-06T12:24:32.822Z,210
2017-03-06T12:25:43.216Z,210
2017-03-06T12:26:53.593Z,215
2017-03-06T12:28:04.372Z,215
2017-03-06T12:29:14.000Z,215
2017-03-06T12:30:24.422Z,215
2017-03-06T12:31:34.843Z,215
2017-03-06T12:32:45.284Z,210
2017-03-06T12:33:54.881Z,210
2017-03-06T12:35:05.311Z,215
2017-03-06T12:36:15.314Z,215
2017-03-06T12:37:25.716Z,220
2017-03-06T12:38:36.107Z,220
2017-03-06T12:39:46.103Z,225
2017-03-06T12:40:56.521Z,230
2017-03-06T12:42:06.970Z,230
2017-03-06T12:43:17.401Z,250
2017-03-06T12:44:27.820Z,265
2017-03-06T12:45:38.605Z,275
2017-03-06T12:46:49.396Z,340
2017-03-06T12:48:00.200Z,345
2017-03-06T12:49:10.644Z,375
2017-03-06T12:50:21.043Z,370
2017-03-06T12:51:31.849Z,365
2017-03-06T12:52:42.651Z,355
2017-03-06T12:53:53.066Z,340
2017-03-06T12:55:03.450Z,325
2017-03-06T12:56:14.276Z,315
2017-03-06T12:57:25.103Z,310
2017-03-06T12:58:35.115Z,295
2017-03-06T12:59:45.923Z,290
2017-03-06T13:00:56.750Z,280
2017-03-06T13:02:07.147Z,280
2017-03-06T13:03:17.934Z,275
2017-03-06T13:04:28.347Z,215
2017-03-06T13:05:39.156Z,270
2017-03-06T13:06:49.985Z,280
2017-03-06T13:08:00.393Z,275
2017-03-06T13:09:11.196Z,155
2017-03-06T13:10:21.589Z,130
2017-03-06T13:11:31.209Z,135
2017-03-06T13:12:42.022Z,135
2017-03-06T13:13:52.502Z,125
2017-03-06T13:15:02.953Z,130
2017-03-06T13:16:13.359Z,135
2017-03-06T13:17:23.777Z,135
2017-03-06T13:18:34.628Z,135
2017-03-06T13:19:44.637Z,135
2017-03-06T13:20:54.652Z,130
2017-03-06T13:22:05.452Z,125
2017-03-06T13:23:15.865Z,125
2017-03-06T13:24:26.287Z,120
2017-03-06T13:25:37.073Z,120
2017-03-06T13:26:47.855Z,205
2017-03-06T13:27:58.271Z,245
2017-03-06T13:29:08.698Z,260
2017-03-06T13:30:19.501Z,260
2017-03-06T13:31:30.295Z,185
2017-03-06T13:32:41.127Z,255
2017-03-06T13:33:51.959Z,140
2017-03-06T13:35:02.372Z,120
2017-03-06T13:36:13.173Z,120
2017-03-06T13:37:23.198Z,120
2017-03-06T13:38:33.664Z,115
2017-03-06T13:39:43.245Z,110
2017-03-06T13:40:53.243Z,105
2017-03-06T13:42:03.656Z,100
2017-03-06T13:43:13.656Z,100
2017-03-06T13:44:24.051Z,100
2017-03-06T13:45:34.877Z,105
2017-03-06T13:46:45.701Z,110
2017-03-06T13:47:55.294Z,115
2017-03-06T13:49:05.709Z,120
2017-03-06T13:50:16.137Z,120
2017-03-06T13:51:26.135Z,130
2017-03-06T13:52:36.520Z,135
2017-03-06T13:53:47.314Z,140
2017-03-06T13:54:58.113Z,145
2017-03-06T13:56:08.521Z,150
2017-03-06T13:57:19.382Z,155
2017-03-06T13:58:30.156Z,155
2017-03-06T13:59:40.548Z,150
2017-03-06T14:00:51.338Z,145
2017-03-06T14:02:01.753Z,140
2017-03-06T14:03:11.751Z,140
2017-03-06T14:04:22.188Z,160
2017-03-06T14:05:32.591Z,145
2017-03-06T14:06:43.011Z,140
2017-03-06T14:07:53.424Z,140
2017-03-06T14:09:03.457Z,135
2017-03-06T14:10:14.279Z,130
2017-03-06T14:11:24.727Z,125
2017-03-06T14:12:35.519Z,120
2017-03-06T14:13:45.111Z,120
2017-03-06T14:14:55.916Z,125
2017-03-06T14:16:06.396Z,135
2017-03-06T14:17:17.217Z,165
2017-03-06T14:18:27.217Z,220
2017-03-06T14:19:37.630Z,185
2017-03-06T14:20:48.425Z,220
2017-03-06T14:21:58.466Z,260
2017-03-06T14:23:08.430Z,260
2017-03-06T14:24:19.217Z,260
2017-03-06T14:25:29.613Z,255
2017-03-06T14:26:39.631Z,240
2017-03-06T14:27:50.448Z,230
2017-03-06T14:29:00.450Z,185
2017-03-06T14:30:10.871Z,210
2017-03-06T14:31:21.303Z,195
2017-03-06T14:32:31.693Z,195
2017-03-06T14:33:41.718Z,185
2017-03-06T14:34:52.508Z,180
2017-03-06T14:36:02.916Z,170
2017-03-06T14:37:13.734Z,160
2017-03-06T14:38:24.173Z,160
2017-03-06T14:39:34.575Z,155
2017-03-06T14:40:45.372Z,160
2017-03-06T14:41:56.166Z,160
2017-03-06T14:43:07.002Z,155
2017-03-06T14:44:17.400Z,155
2017-03-06T14:45:28.196Z,155
2017-03-06T14:46:38.608Z,150
2017-03-06T14:47:49.010Z,145
2017-03-06T14:48:59.815Z,145
2017-03-06T14:50:10.628Z,145
2017-03-06T14:51:21.055Z,140
2017-03-06T14:52:31.439Z,140
2017-03-06T14:53:41.851Z,145
2017-03-06T14:54:52.656Z,140
2017-03-06T14:56:03.473Z,130
2017-03-06T14:57:13.875Z,130
2017-03-06T14:58:24.674Z,135
2017-03-06T14:59:35.497Z,140
2017-03-06T15:00:45.914Z,145
2017-03-06T15:01:55.906Z,145
2017-03-06T15:03:06.703Z,140
2017-03-06T15:04:17.120Z,125
2017-03-06T15:05:27.946Z,120
2017-03-06T15:06:38.747Z,120
2017-03-06T15:07:49.562Z,140
2017-03-06T15:09:00.354Z,145
2017-03-06T15:10:10.728Z,145
2017-03-06T15:11:21.550Z,140
2017-03-06T15:12:31.942Z,140
2017-03-06T15:13:42.373Z,135
2017-03-06T15:14:52.775Z,135
2017-03-06T15:16:03.572Z,130
2017-03-06T15:17:14.390Z,120
2017-03-06T15:18:25.221Z,120
2017-03-06T15:19:35.991Z,115
2017-03-06T15:20:46.796Z,115
2017-03-06T15:21:56.820Z,115
2017-03-06T15:23:07.231Z,90
2017-03-06T15:24:17.638Z,80
2017-03-06T15:25:27.648Z,80
2017-03-06T15:26:37.666Z,85
2017-03-06T15:27:48.082Z,75
2017-03-06T15:28:58.883Z,75
2017-03-06T15:30:09.704Z,75
2017-03-06T15:31:20.512Z,75
2017-03-06T15:32:30.905Z,75
2017-03-06T15:33:41.331Z,70
2017-03-06T15:34:52.163Z,65
2017-03-06T15:36:02.996Z,65
2017-03-06T15:37:13.814Z,65
2017-03-06T15:38:24.606Z,65
2017-03-06T15:39:35.890Z,65
2017-03-06T15:40:46.334Z,65
2017-03-06T15:41:56.747Z,65
2017-03-06T15:43:06.766Z,60
2017-03-06T15:44:17.163Z,60
2017-03-06T15:45:27.566Z,60
2017-03-06T15:46:37.991Z,55
2017-03-06T15:47:48.447Z,55
2017-03-06T15:48:59.252Z,55
2017-03-06T15:50:10.086Z,55
2017-03-06T15:51:20.914Z,55
2017-03-06T15:52:31.346Z,50
2017-03-06T15:53:41.763Z,50
2017-03-06T15:54:52.161Z,45
2017-03-06T15:56:03.231Z,45
2017-03-06T15:57:14.025Z,40
2017-03-06T15:58:24.413Z,40
2017-03-06T15:59:34.830Z,40
2017-03-06T16:00:45.658Z,35
2017-03-06T16:01:56.457Z,35
2017-03-06T16:03:07.247Z,35
2017-03-06T16:04:17.277Z,30
2017-03-06T16:05:28.105Z,30
2017-03-06T16:06:38.896Z,30
2017-03-06T16:07:49.325Z,30
2017-03-06T16:08:59.767Z,25
2017-03-06T16:10:10.546Z,25
2017-03-06T16:11:20.558Z,25
2017-03-06T16:12:31.367Z,25
2017-03-06T16:13:41.812Z,25
2017-03-06T16:14:52.620Z,20
2017-03-06T16:16:03.036Z,20
2017-03-06T16:17:13.842Z,20
2017-03-06T16:18:23.846Z,20
2017-03-06T16:19:34.646Z,20
2017-03-06T16:20:45.033Z,15
2017-03-06T16:21:55.833Z,15
2017-03-06T16:23:06.248Z,15
2017-03-06T16:24:16.624Z,15
2017-03-06T16:25:27.460Z,15
2017-03-06T16:26:37.482Z,10
2017-03-06T16:27:47.503Z,10
2017-03-06T16:28:58.312Z,10
2017-03-06T16:30:08.701Z,10
2017-03-06T16:31:19.103Z,10
2017-03-06T16:32:29.901Z,5
2017-03-06T16:33:40.306Z,5
2017-03-06T16:34:51.082Z,5
2017-03-06T16:36:01.531Z,5
2017-03-06T16:37:12.342Z,5
2017-03-06T16:38:23.157Z,5
2017-03-06T16:39:33.970Z,5
2017-03-06T16:40:44.787Z,0
2017-03-06T16:41:55.191Z,0
2017-03-06T16:43:05.594Z,0
2017-03-06T16:44:15.571Z,0
2017-03-06T16:45:26.353Z,0
2017-03-06T16:46:37.143Z,0
2017-03-06T16:47:47.546Z,0
2017-03-06T16:48:57.962Z,0
2017-03-06T16:50:08.522Z,0
2017-03-06T16:51:19.026Z,0
2017-03-06T16:52:29.857Z,0
2017-03-06T16:53:40.303Z,0
2017-03-06T16:54:51.081Z,0
2017-03-06T16:56:01.852Z,0
2017-03-06T16:57:12.630Z,0
2017-03-06T16:58:23.402Z,0
2017-03-06T16:59:33.030Z,0
2017-03-06T17:00:43.457Z,0
2017-03-06T17:01:54.254Z,0
2017-03-06T17:03:05.069Z,0
2017-03-06T17:04:15.487Z,0
2017-03-06T17:05:26.260Z,0
2017-03-06T17:06:37.049Z,0
2017-03-06T17:07:47.062Z,0
2017-03-06T17:08:57.503Z,0
2017-03-06T17:10:08.320Z,0